Time;durP1;ratioP1;P1;durP2;ratioP2;P2;SDS_P1;SDS_P2;PMS_P1;PMS_P2;Temp;Humidity;BMP_temperature;BMP_pressure;BME280_temperature;BME280_humidity;BME280_pressure;Samples;Min_cycle;Max_cycle;Signal;HPM_P1;HPM_P2
2023/03/10 00:01:59;;;;;;;;;;;;;;;21.96;34.74;99871.77;103600;1310;61298;-82
2023/03/10 00:04:24;;;;;;;;;;;;;;;21.97;34.67;99871.52;103439;1311;74539;-82
2023/03/10 00:06:50;;;;;;;;;;;;;;;21.96;34.58;99873.73;103393;1311;61406;-82
2023/03/10 00:09:15;;;;;;;;;;;;;;;21.96;34.71;99882.70;103501;1310;61275;-82
2023/03/10 00:11:41;;;;;;;;;;;;;;;21.96;34.82;99878.40;103581;1311;61298;-82
2023/03/10 00:14:06;;;;;;;;;;;;;;;21.96;34.85;99873.90;103492;1311;61355;-82
2023/03/10 00:16:32;;;;;;;;;;;;;;;21.96;34.79;99869.77;103658;1311;73975;-82
2023/03/10 00:18:58;;;;;;;;;;;;;;;21.96;34.79;99869.10;103471;1311;61404;-82
2023/03/10 00:21:28;;;;;;;;;;;;;;;21.96;34.95;99867.86;103472;1310;61330;-82
2023/03/10 00:23:55;;;;;;;;;;;;;;;21.96;34.87;99865.55;103565;1310;72502;-82
2023/03/10 00:26:21;;;;;;;;;;;;;;;21.96;34.92;99862.31;103672;1310;61312;-82
2023/03/10 00:28:47;;;;;;;;;;;;;;;21.96;34.98;99866.20;103676;1311;61419;-82
2023/03/10 00:31:15;;;;;;;;;;;;;;;21.96;35.07;99870.52;103559;1310;61305;-82
2023/03/10 00:33:40;;;;;;;;;;;;;;;21.96;34.90;99874.68;103658;1311;61320;-82
2023/03/10 00:36:10;;;;;;;;;;;;;;;21.95;35.09;99875.58;103597;1310;61448;-82
2023/03/10 00:38:37;;;;;;;;;;;;;;;21.95;35.07;99870.23;103694;1311;61397;-82
2023/03/10 00:41:04;;;;;;;;;;;;;;;21.96;34.98;99868.57;103710;1312;61288;-82
2023/03/10 00:43:29;;;;;;;;;;;;;;;21.96;35.14;99871.97;103564;1312;73460;-82
2023/03/10 00:45:55;;;;;;;;;;;;;;;21.96;34.90;99873.94;103641;1311;61333;-82
2023/03/10 00:48:21;;;;;;;;;;;;;;;21.96;35.11;99880.39;103582;1311;61336;-82
2023/03/10 00:50:46;;;;;;;;;;;;;;;21.95;35.06;99884.00;103427;1311;61311;-81
2023/03/10 00:53:12;;;;;;;;;;;;;;;21.95;35.01;99888.87;103679;1311;61288;-81
2023/03/10 00:55:37;;;;;;;;;;;;;;;21.95;35.16;99886.52;103567;1311;72551;-81
2023/03/10 00:58:03;;;;;;;;;;;;;;;21.95;35.23;99889.05;103643;1311;61301;-81
2023/03/10 01:00:28;;;;;;;;;;;;;;;21.95;35.13;99889.95;103571;1309;61354;-81
2023/03/10 01:02:54;;;;;;;;;;;;;;;21.95;35.08;99886.23;103459;1310;61310;-81
2023/03/10 01:05:20;;;;;;;;;;;;;;;21.95;35.10;99886.77;103500;1311;61304;-81
2023/03/10 01:07:46;;;;;;;;;;;;;;;21.94;35.22;99883.56;103450;1310;73402;-82
2023/03/10 01:10:12;;;;;;;;;;;;;;;21.94;35.09;99881.95;103477;1310;61394;-82
2023/03/10 01:12:39;;;;;;;;;;;;;;;21.94;35.21;99882.52;103585;1311;61313;-82
2023/03/10 01:15:04;;;;;;;;;;;;;;;21.94;35.20;99879.81;103655;1311;61265;-81
2023/03/10 01:17:30;;;;;;;;;;;;;;;21.94;35.25;99880.91;103585;1311;61300;-82
2023/03/10 01:19:57;;;;;;;;;;;;;;;21.94;35.22;99884.14;103557;1310;61300;-83
2023/03/10 01:22:23;;;;;;;;;;;;;;;21.94;35.12;99880.54;103605;1311;61813;-82
2023/03/10 01:24:49;;;;;;;;;;;;;;;21.93;35.18;99878.99;103703;1311;61281;-82
2023/03/10 01:27:14;;;;;;;;;;;;;;;21.93;35.37;99877.55;103622;1314;61307;-81
2023/03/10 01:29:40;;;;;;;;;;;;;;;21.93;35.37;99877.21;103536;1310;72865;-82
2023/03/10 01:32:05;;;;;;;;;;;;;;;21.93;35.31;99878.48;103435;1310;61413;-81
2023/03/10 01:34:34;;;;;;;;;;;;;;;21.93;35.38;99881.34;103449;1311;61335;-82
2023/03/10 01:37:00;;;;;;;;;;;;;;;21.92;35.32;99881.53;103673;1311;61287;-82
2023/03/10 01:39:25;;;;;;;;;;;;;;;21.92;35.35;99882.10;103645;1311;61301;-81
2023/03/10 01:41:51;;;;;;;;;;;;;;;21.92;35.31;99876.55;103651;1312;61329;-82
2023/03/10 01:44:18;;;;;;;;;;;;;;;21.92;35.38;99872.62;103661;1311;59358;-81
2023/03/10 01:46:51;;;;;;;;;;;;;;;21.92;35.37;99868.15;103625;1311;62457;-82
2023/03/10 01:49:37;;;;;;;;;;;;;;;21.92;35.34;99860.80;103554;1310;73426;-82
2023/03/10 01:52:03;;;;;;;;;;;;;;;21.92;35.42;99859.92;103628;1309;75428;-83
2023/03/10 01:54:30;;;;;;;;;;;;;;;21.91;35.43;99861.77;103690;1310;61333;-82
2023/03/10 01:56:55;;;;;;;;;;;;;;;21.92;35.47;99860.66;103698;1311;59275;-82
2023/03/10 01:59:21;;;;;;;;;;;;;;;21.91;35.41;99859.96;103601;1311;61264;-81
2023/03/10 02:01:47;;;;;;;;;;;;;;;21.91;35.44;99853.56;103629;1312;61337;-82
2023/03/10 02:04:18;;;;;;;;;;;;;;;21.91;35.38;99857.50;103585;1310;61195;-82
2023/03/10 02:06:45;;;;;;;;;;;;;;;21.91;35.39;99861.11;103604;1310;61206;-82
2023/03/10 02:09:10;;;;;;;;;;;;;;;21.91;35.45;99860.73;103558;1311;61301;-82
2023/03/10 02:11:36;;;;;;;;;;;;;;;21.91;35.43;99862.19;103646;1311;61273;-82
2023/03/10 02:14:03;;;;;;;;;;;;;;;21.91;35.50;99870.42;103603;1311;61527;-82
2023/03/10 02:16:34;;;;;;;;;;;;;;;21.90;35.47;99871.16;103602;1311;61324;-83
2023/03/10 02:19:00;;;;;;;;;;;;;;;21.90;35.42;99869.02;103652;1310;72812;-82
2023/03/10 02:21:35;;;;;;;;;;;;;;;21.90;35.49;99869.20;103560;1315;61368;-82
2023/03/10 02:24:05;;;;;;;;;;;;;;;21.90;35.65;99874.02;103649;1310;61192;-80
2023/03/10 02:26:33;;;;;;;;;;;;;;;21.90;35.54;99872.61;103624;1311;61176;-81
2023/03/10 02:28:59;;;;;;;;;;;;;;;21.90;35.43;99872.84;103617;1311;73535;-81
2023/03/10 02:31:24;;;;;;;;;;;;;;;21.90;35.46;99874.62;103607;1311;61332;-81
2023/03/10 02:33:50;;;;;;;;;;;;;;;21.89;35.63;99877.51;103706;1311;61419;-82
2023/03/10 02:36:17;;;;;;;;;;;;;;;21.89;35.48;99882.01;103616;1311;61378;-82
2023/03/10 02:38:42;;;;;;;;;;;;;;;21.90;35.48;99884.13;103660;1311;61282;-83
2023/03/10 02:41:28;;;;;;;;;;;;;;;21.89;35.52;99887.92;103423;1311;61444;-83
2023/03/10 02:43:54;;;;;;;;;;;;;;;21.89;35.62;99887.02;103627;1309;61189;-82
2023/03/10 02:46:19;;;;;;;;;;;;;;;21.89;35.65;99888.99;103608;1311;61326;-83
2023/03/10 02:48:45;;;;;;;;;;;;;;;21.89;35.60;99890.64;103544;1310;61380;-82
2023/03/10 02:51:15;;;;;;;;;;;;;;;21.89;35.56;99892.45;103451;1311;61327;-82
2023/03/10 02:53:41;;;;;;;;;;;;;;;21.89;35.68;99899.95;103626;1311;61231;-82
2023/03/10 02:56:06;;;;;;;;;;;;;;;21.89;35.61;99906.23;103709;1312;61323;-82
2023/03/10 02:58:32;;;;;;;;;;;;;;;21.89;35.66;99912.83;103603;1316;61426;-82
2023/03/10 03:00:58;;;;;;;;;;;;;;;21.88;35.57;99917.92;103557;1311;61352;-82
2023/03/10 03:03:23;;;;;;;;;;;;;;;21.88;35.45;99918.96;103468;1310;61410;-82
2023/03/10 03:05:49;;;;;;;;;;;;;;;21.89;35.51;99922.20;103647;1311;61428;-82
2023/03/10 03:08:15;;;;;;;;;;;;;;;21.89;35.66;99923.82;103678;1311;61297;-82
2023/03/10 03:10:40;;;;;;;;;;;;;;;21.88;35.62;99925.99;103580;1311;61767;-82
2023/03/10 03:13:06;;;;;;;;;;;;;;;21.88;35.53;99924.58;103585;1310;61326;-82
2023/03/10 03:15:31;;;;;;;;;;;;;;;21.87;35.53;99921.77;103474;1310;61314;-82
2023/03/10 03:17:59;;;;;;;;;;;;;;;21.88;35.67;99919.21;103598;1311;62307;-82
2023/03/10 03:20:25;;;;;;;;;;;;;;;21.87;35.65;99921.77;103542;1310;61860;-82
2023/03/10 03:22:51;;;;;;;;;;;;;;;21.87;35.53;99924.30;103404;1315;62083;-82
2023/03/10 03:25:17;;;;;;;;;;;;;;;21.87;35.59;99921.65;103676;1311;61256;-82
2023/03/10 03:27:43;;;;;;;;;;;;;;;21.87;35.64;99914.87;103515;1310;62173;-80
2023/03/10 03:30:14;;;;;;;;;;;;;;;21.86;35.63;99918.49;103561;1311;61323;-80
2023/03/10 03:32:39;;;;;;;;;;;;;;;21.86;35.75;99919.37;103588;1311;73423;-82
2023/03/10 03:35:08;;;;;;;;;;;;;;;21.86;35.56;99920.81;103427;1316;61363;-81
2023/03/10 03:37:33;;;;;;;;;;;;;;;21.86;35.77;99918.17;103705;1310;61282;-81
2023/03/10 03:39:59;;;;;;;;;;;;;;;21.85;35.68;99913.88;103643;1310;61293;-81
2023/03/10 03:42:24;;;;;;;;;;;;;;;21.85;35.51;99912.99;103620;1311;61323;-81
2023/03/10 03:44:50;;;;;;;;;;;;;;;21.85;35.62;99913.02;103549;1311;61841;-82
2023/03/10 03:47:15;;;;;;;;;;;;;;;21.85;35.66;99915.68;103596;1312;61275;-82
2023/03/10 03:49:41;;;;;;;;;;;;;;;21.85;35.70;99916.27;103433;1311;61408;-82
2023/03/10 03:52:06;;;;;;;;;;;;;;;21.85;35.61;99914.48;103572;1311;61282;-82
2023/03/10 03:54:32;;;;;;;;;;;;;;;21.85;35.75;99909.45;103388;1310;61329;-82
2023/03/10 03:56:58;;;;;;;;;;;;;;;21.85;35.66;99915.03;103539;1311;61237;-82
2023/03/10 03:59:24;;;;;;;;;;;;;;;21.85;35.68;99917.52;103459;1310;61215;-82
2023/03/10 04:01:49;;;;;;;;;;;;;;;21.84;35.68;99917.40;103596;1311;62408;-82
2023/03/10 04:04:15;;;;;;;;;;;;;;;21.85;35.74;99916.14;103534;1311;61324;-82
2023/03/10 04:06:40;;;;;;;;;;;;;;;21.84;35.69;99912.94;103470;1310;61271;-82
2023/03/10 04:09:09;;;;;;;;;;;;;;;21.84;35.55;99907.55;103586;1310;61416;-82
2023/03/10 04:11:35;;;;;;;;;;;;;;;21.84;35.72;99903.29;103603;1311;61316;-81
2023/03/10 04:14:01;;;;;;;;;;;;;;;21.84;35.78;99898.42;103624;1311;61411;-82
2023/03/10 04:16:27;;;;;;;;;;;;;;;21.84;35.65;99900.43;103435;1311;61471;-83
2023/03/10 04:18:54;;;;;;;;;;;;;;;21.83;35.69;99899.73;103567;1311;61329;-82
2023/03/10 04:21:19;;;;;;;;;;;;;;;21.83;35.63;99901.19;103609;1311;61305;-82
2023/03/10 04:23:45;;;;;;;;;;;;;;;21.83;35.54;99906.52;103586;1310;61382;-82
2023/03/10 04:26:10;;;;;;;;;;;;;;;21.83;35.62;99907.80;103558;1314;61307;-82
2023/03/10 04:28:36;;;;;;;;;;;;;;;21.83;35.61;99906.93;103708;1314;61857;-82
2023/03/10 04:31:02;;;;;;;;;;;;;;;21.83;35.66;99904.80;103636;1310;74565;-82
2023/03/10 04:33:27;;;;;;;;;;;;;;;21.83;35.59;99901.24;103553;1309;61308;-82
2023/03/10 04:35:53;;;;;;;;;;;;;;;21.82;35.58;99900.91;103649;1314;61298;-82
2023/03/10 04:38:18;;;;;;;;;;;;;;;21.82;35.63;99899.68;103641;1314;61301;-83
2023/03/10 04:40:44;;;;;;;;;;;;;;;21.82;35.57;99898.46;103598;1316;61291;-82
2023/03/10 04:43:10;;;;;;;;;;;;;;;21.81;35.60;99904.23;103638;1311;61303;-83
2023/03/10 04:45:36;;;;;;;;;;;;;;;21.81;35.56;99905.90;103590;1311;61350;-83
2023/03/10 04:48:01;;;;;;;;;;;;;;;21.81;35.63;99907.84;103470;1311;61163;-83
2023/03/10 04:50:28;;;;;;;;;;;;;;;21.81;35.55;99916.96;103568;1310;61192;-83
2023/03/10 04:52:54;;;;;;;;;;;;;;;21.81;35.48;99916.81;103429;1311;61349;-82
2023/03/10 04:55:19;;;;;;;;;;;;;;;21.81;35.37;99915.23;103558;1311;61340;-82
2023/03/10 04:57:45;;;;;;;;;;;;;;;21.81;35.45;99918.41;103685;1311;61368;-82
2023/03/10 05:00:11;;;;;;;;;;;;;;;21.80;35.61;99921.70;103637;1310;61436;-82
2023/03/10 05:02:37;;;;;;;;;;;;;;;21.79;35.65;99926.99;103613;1312;61873;-81
2023/03/10 05:05:03;;;;;;;;;;;;;;;21.77;35.55;99933.41;103526;1310;75611;-82
2023/03/10 05:07:29;;;;;;;;;;;;;;;21.75;35.48;99928.94;103560;1311;61320;-81
2023/03/10 05:09:56;;;;;;;;;;;;;;;21.73;35.53;99930.70;103436;1311;61423;-81
2023/03/10 05:12:22;;;;;;;;;;;;;;;21.72;35.56;99936.89;103559;1310;61278;-81
2023/03/10 05:14:48;;;;;;;;;;;;;;;21.71;35.41;99937.94;103557;1311;61336;-82
2023/03/10 05:17:38;;;;;;;;;;;;;;;21.70;35.40;99946.07;103658;1308;61476;-82
2023/03/10 05:20:04;;;;;;;;;;;;;;;21.67;35.43;99962.59;102990;1318;61324;-82
2023/03/10 05:22:29;;;;;;;;;;;;;;;21.65;35.43;99966.04;102995;1317;62851;-81
2023/03/10 05:24:55;;;;;;;;;;;;;;;21.62;35.46;99953.95;102944;1314;62328;-81
2023/03/10 05:27:21;;;;;;;;;;;;;;;21.59;35.45;99962.36;102865;1315;61263;-80
2023/03/10 05:29:46;;;;;;;;;;;;;;;21.57;35.47;99976.17;102851;1314;61331;-82
2023/03/10 05:32:12;;;;;;;;;;;;;;;21.54;35.43;99976.58;102899;1314;61302;-81
2023/03/10 05:34:37;;;;;;;;;;;;;;;21.51;35.36;99963.92;102776;1315;61604;-81
2023/03/10 05:37:03;;;;;;;;;;;;;;;21.49;35.59;99965.90;102796;1315;61288;-81
2023/03/10 05:39:28;;;;;;;;;;;;;;;21.47;35.50;99974.47;102660;1317;61404;-81
2023/03/10 05:41:54;;;;;;;;;;;;;;;21.44;35.57;99967.55;102913;1314;61298;-81
2023/03/10 05:44:20;;;;;;;;;;;;;;;21.42;35.62;99955.93;102605;1315;61394;-81
2023/03/10 05:46:46;;;;;;;;;;;;;;;21.41;35.55;99962.14;102502;1314;72714;-81
2023/03/10 05:49:15;;;;;;;;;;;;;;;21.36;35.52;99961.27;102411;1316;61437;-81
2023/03/10 05:51:42;;;;;;;;;;;;;;;21.32;35.68;99959.00;102398;1314;61215;-81
2023/03/10 05:54:08;;;;;;;;;;;;;;;21.26;35.66;99963.58;102314;1314;61575;-83
2023/03/10 05:56:37;;;;;;;;;;;;;;;21.20;35.82;99975.38;102257;1311;72569;-82
2023/03/10 05:59:02;;;;;;;;;;;;;;;21.14;35.85;99987.11;102777;1308;61528;-82
2023/03/10 06:01:28;;;;;;;;;;;;;;;21.12;35.88;99983.00;102497;1312;61316;-82
2023/03/10 06:03:54;;;;;;;;;;;;;;;21.09;35.95;99971.56;102729;1311;60180;-81
2023/03/10 06:06:19;;;;;;;;;;;;;;;21.08;36.06;99983.65;102580;1312;63297;-81
2023/03/10 06:08:45;;;;;;;;;;;;;;;21.09;35.98;99994.36;102411;1310;61282;-81
2023/03/10 06:11:11;;;;;;;;;;;;;;;21.09;36.13;99989.27;102556;1309;72704;-81
2023/03/10 06:13:36;;;;;;;;;;;;;;;21.11;36.20;99984.36;102570;1308;61374;-82
2023/03/10 06:16:03;;;;;;;;;;;;;;;21.11;36.14;99988.27;102760;1312;59573;-81
2023/03/10 06:18:52;;;;;;;;;;;;;;;21.11;36.03;99988.27;102643;1312;61270;-82
2023/03/10 06:21:17;;;;;;;;;;;;;;;21.08;36.06;99994.91;102288;1314;75544;-81
2023/03/10 06:23:43;;;;;;;;;;;;;;;21.04;36.01;100002.81;102280;1314;62875;-81
2023/03/10 06:26:11;;;;;;;;;;;;;;;20.99;35.93;100006.46;102256;1317;61490;-81
2023/03/10 06:28:37;;;;;;;;;;;;;;;20.96;36.05;100000.86;102204;1314;61523;-81
2023/03/10 06:31:07;;;;;;;;;;;;;;;20.94;36.20;100003.66;103762;1315;59520;-80
2023/03/10 06:33:33;;;;;;;;;;;;;;;20.91;36.30;100000.84;102767;1317;61237;-79
2023/03/10 06:35:58;;;;;;;;;;;;;;;20.90;36.27;100003.36;103808;1316;60551;-80
2023/03/10 06:38:24;;;;;;;;;;;;;;;20.92;36.19;100011.52;103830;1315;60466;-80
2023/03/10 06:40:49;;;;;;;;;;;;;;;20.92;36.40;100013.27;102807;1317;61350;-79
2023/03/10 06:43:15;;;;;;;;;;;;;;;20.93;36.42;100009.61;102356;1314;61512;-79
2023/03/10 06:45:44;;;;;;;;;;;;;;;20.93;36.44;100007.08;102325;1314;61561;-84
2023/03/10 06:48:09;;;;;;;;;;;;;;;20.95;36.33;99998.77;102317;1315;61160;-82
2023/03/10 06:50:35;;;;;;;;;;;;;;;20.97;36.41;100002.13;102189;1314;61411;-82
2023/03/10 06:53:00;;;;;;;;;;;;;;;20.99;36.43;100007.88;101984;1316;61530;-80
2023/03/10 06:55:26;;;;;;;;;;;;;;;21.00;36.38;100009.44;102024;1316;61575;-80
2023/03/10 06:57:52;;;;;;;;;;;;;;;20.98;36.46;100009.96;102251;1314;61438;-80
2023/03/10 07:00:18;;;;;;;;;;;;;;;20.96;36.49;100012.12;102678;1311;61179;-80
2023/03/10 07:02:44;;;;;;;;;;;;;;;20.92;36.51;100020.62;102174;1308;601184;-79
2023/03/10 07:05:10;;;;;;;;;;;;;;;20.90;36.62;100024.20;102670;1311;61462;-82
2023/03/10 07:07:35;;;;;;;;;;;;;;;20.90;36.62;100021.22;102523;1311;61352;-80
2023/03/10 07:10:01;;;;;;;;;;;;;;;20.91;36.52;100021.41;102699;1308;61387;-80
2023/03/10 07:12:27;;;;;;;;;;;;;;;20.89;36.57;100017.33;102717;1308;61406;-79
2023/03/10 07:14:52;;;;;;;;;;;;;;;20.80;36.41;100013.00;102744;1311;61381;-82
2023/03/10 07:17:18;;;;;;;;;;;;;;;20.71;36.55;100011.44;102779;1312;61336;-79
2023/03/10 07:19:43;;;;;;;;;;;;;;;20.64;36.56;100012.10;103051;1314;61323;-80
2023/03/10 07:22:09;;;;;;;;;;;;;;;20.57;36.60;100009.33;103020;1311;63695;-81
2023/03/10 07:24:35;;;;;;;;;;;;;;;20.52;36.65;100004.15;102778;1311;61942;-81
2023/03/10 07:27:00;;;;;;;;;;;;;;;20.51;36.78;100005.68;102978;1311;61382;-81
2023/03/10 07:29:26;;;;;;;;;;;;;;;20.51;36.85;100004.80;103282;1311;75806;-81
2023/03/10 07:31:52;;;;;;;;;;;;;;;20.50;36.79;100005.27;103053;1311;61353;-80
2023/03/10 07:34:18;;;;;;;;;;;;;;;20.47;36.68;100005.30;102912;1311;61866;-80
2023/03/10 07:36:44;;;;;;;;;;;;;;;20.46;36.76;100002.17;102836;1310;61311;-81
2023/03/10 07:39:10;;;;;;;;;;;;;;;20.45;36.70;99999.58;102816;1312;61183;-81
2023/03/10 07:41:36;;;;;;;;;;;;;;;20.42;36.68;99998.57;103034;1311;63253;-81
2023/03/10 07:44:03;;;;;;;;;;;;;;;20.41;36.60;100001.66;103099;1314;62529;-81
2023/03/10 07:46:29;;;;;;;;;;;;;;;20.41;36.63;100000.98;103598;1314;61222;-83
2023/03/10 07:49:05;;;;;;;;;;;;;;;20.38;36.53;99998.13;103116;1314;71507;-81
2023/03/10 07:51:32;;;;;;;;;;;;;;;20.34;36.58;99998.70;102911;1312;74505;-81
2023/03/10 07:53:57;;;;;;;;;;;;;;;20.25;36.48;99999.04;102867;1308;61364;-82
2023/03/10 07:56:26;;;;;;;;;;;;;;;20.15;36.57;99995.36;102898;1313;61797;-82
2023/03/10 07:58:54;;;;;;;;;;;;;;;20.13;36.75;99997.34;103044;1309;72699;-81
2023/03/10 08:01:20;;;;;;;;;;;;;;;20.11;36.81;99996.59;103103;1313;75487;-82
2023/03/10 08:03:47;;;;;;;;;;;;;;;20.08;36.92;99997.50;103148;1309;61283;-82
2023/03/10 08:06:20;;;;;;;;;;;;;;;20.07;36.87;99999.16;103106;1313;61161;-83
2023/03/10 08:08:49;;;;;;;;;;;;;;;20.04;36.83;100000.50;102987;1309;74568;-82
2023/03/10 08:11:17;;;;;;;;;;;;;;;20.04;36.73;100000.34;102759;1314;75173;-82
2023/03/10 08:13:44;;;;;;;;;;;;;;;20.04;36.83;99997.13;102797;1312;61236;-82
2023/03/10 08:16:11;;;;;;;;;;;;;;;20.04;36.87;99996.26;102751;1308;60428;-82
2023/03/10 08:18:37;;;;;;;;;;;;;;;20.05;36.69;99999.86;102790;1314;63235;-82
2023/03/10 08:21:03;;;;;;;;;;;;;;;20.11;36.87;100000.15;102779;1313;61426;-82
2023/03/10 08:23:29;;;;;;;;;;;;;;;20.13;36.75;99994.08;102736;1311;61572;-82
2023/03/10 08:25:54;;;;;;;;;;;;;;;20.14;36.69;99989.05;102741;1309;61314;-82
2023/03/10 08:28:20;;;;;;;;;;;;;;;20.17;36.76;99993.05;102804;1309;61387;-82
2023/03/10 08:30:45;;;;;;;;;;;;;;;20.22;36.79;99986.21;103018;1314;61986;-82
2023/03/10 08:33:11;;;;;;;;;;;;;;;20.28;36.78;99978.29;102910;1314;75487;-81
2023/03/10 08:35:37;;;;;;;;;;;;;;;20.30;36.68;99969.15;102993;1308;61819;-81
2023/03/10 08:38:04;;;;;;;;;;;;;;;20.32;36.75;99972.72;102944;1309;64232;-81
2023/03/10 08:40:31;;;;;;;;;;;;;;;20.33;36.57;99970.86;102676;1314;61346;-81
2023/03/10 08:42:57;;;;;;;;;;;;;;;20.32;36.65;99971.28;102786;1309;74381;-81
2023/03/10 08:45:23;;;;;;;;;;;;;;;20.33;36.66;99969.45;102684;1311;63308;-81
2023/03/10 08:47:48;;;;;;;;;;;;;;;20.34;36.56;99966.66;102503;1309;61361;-81
2023/03/10 08:50:14;;;;;;;;;;;;;;;20.37;36.50;99962.50;102607;1310;64421;-81
2023/03/10 08:52:39;;;;;;;;;;;;;;;20.40;36.57;99964.79;102571;1309;61470;-81
2023/03/10 08:55:05;;;;;;;;;;;;;;;20.41;36.51;99959.30;102495;1308;74644;-80
2023/03/10 08:57:30;;;;;;;;;;;;;;;20.40;36.42;99951.19;102633;1311;62909;-81
2023/03/10 08:59:56;;;;;;;;;;;;;;;20.36;36.41;99946.64;102638;1308;61358;-82
2023/03/10 09:02:22;;;;;;;;;;;;;;;20.37;36.56;99943.71;102562;1310;61419;-81
2023/03/10 09:04:49;;;;;;;;;;;;;;;20.34;36.51;99947.93;102381;1312;61465;-82
2023/03/10 09:07:14;;;;;;;;;;;;;;;20.32;36.57;99942.34;102711;1311;61300;-81
2023/03/10 09:09:40;;;;;;;;;;;;;;;20.29;36.68;99937.98;102841;1309;60773;-81
2023/03/10 09:12:07;;;;;;;;;;;;;;;20.28;36.91;99938.94;102621;1308;63439;-81
2023/03/10 09:14:33;;;;;;;;;;;;;;;20.27;36.62;99931.14;102482;1308;73151;-81
2023/03/10 09:17:00;;;;;;;;;;;;;;;20.27;36.84;99932.96;102813;1309;61294;-81
2023/03/10 09:19:29;;;;;;;;;;;;;;;20.32;36.94;99927.03;102891;1309;61451;-81
2023/03/10 09:21:56;;;;;;;;;;;;;;;20.37;37.21;99922.06;102893;1309;62168;-81
2023/03/10 09:24:22;;;;;;;;;;;;;;;20.42;37.13;99920.06;102756;1309;73344;-81
2023/03/10 09:26:48;;;;;;;;;;;;;;;20.47;37.37;99919.34;102870;1308;61195;-81
2023/03/10 09:29:16;;;;;;;;;;;;;;;20.50;37.51;99917.08;102975;1308;61396;-81
2023/03/10 09:31:42;;;;;;;;;;;;;;;20.54;37.37;99913.23;102931;1308;61372;-81
2023/03/10 09:34:08;;;;;;;;;;;;;;;20.56;37.42;99909.97;102854;1308;72591;-81
2023/03/10 09:36:35;;;;;;;;;;;;;;;20.59;37.31;99906.73;102866;1309;61490;-81
2023/03/10 09:39:01;;;;;;;;;;;;;;;20.57;37.31;99902.89;103194;1309;61368;-82
2023/03/10 09:41:29;;;;;;;;;;;;;;;20.53;37.17;99900.40;103471;1311;61286;-81
2023/03/10 09:44:01;;;;;;;;;;;;;;;20.52;37.33;99896.98;103310;1309;72485;-81
2023/03/10 09:46:49;;;;;;;;;;;;;;;20.52;37.06;99897.07;102956;1308;74904;-81
2023/03/10 09:49:16;;;;;;;;;;;;;;;20.54;37.25;99899.47;102869;1308;61873;-81
2023/03/10 09:51:42;;;;;;;;;;;;;;;20.49;37.22;99895.20;103015;1308;61432;-81
2023/03/10 09:54:39;;;;;;;;;;;;;;;20.50;37.24;99888.12;103302;1308;73534;-81
2023/03/10 09:57:12;;;;;;;;;;;;;;;20.56;37.59;99890.32;102207;1320;74617;-81
2023/03/10 09:59:39;;;;;;;;;;;;;;;20.60;37.51;99891.23;102359;1314;63710;-81
2023/03/10 10:02:14;;;;;;;;;;;;;;;20.64;37.65;99895.98;102326;1317;61386;-81
2023/03/10 10:04:41;;;;;;;;;;;;;;;20.66;37.72;99898.09;102136;1315;72516;-81
2023/03/10 10:07:17;;;;;;;;;;;;;;;20.66;37.65;99895.96;102328;1320;62281;-80
2023/03/10 10:10:06;;;;;;;;;;;;;;;20.64;37.62;99892.60;102754;1317;60681;-81
2023/03/10 10:12:32;;;;;;;;;;;;;;;20.63;37.55;99886.87;102288;1318;61430;-81
2023/03/10 10:15:05;;;;;;;;;;;;;;;20.65;37.59;99883.02;102127;1318;61038;-81
2023/03/10 10:17:48;;;;;;;;;;;;;;;20.67;37.49;99872.29;101974;1317;74423;-81
2023/03/10 10:20:24;;;;;;;;;;;;;;;20.70;37.50;99870.08;102235;1317;61237;-81
2023/03/10 10:22:51;;;;;;;;;;;;;;;20.71;37.39;99869.83;102246;1314;61205;-82
2023/03/10 10:25:21;;;;;;;;;;;;;;;20.73;37.40;99869.46;102232;1317;73622;-81
2023/03/10 10:27:47;;;;;;;;;;;;;;;20.74;37.31;99869.70;102419;1316;74710;-82
2023/03/10 10:30:28;;;;;;;;;;;;;;;20.77;37.32;99863.77;102260;1316;61399;-82
2023/03/10 10:33:00;;;;;;;;;;;;;;;20.78;37.40;99860.87;102259;1308;61233;-82
2023/03/10 10:35:27;;;;;;;;;;;;;;;20.78;37.14;99856.90;102984;1309;72474;-82
2023/03/10 10:37:59;;;;;;;;;;;;;;;20.79;37.13;99848.27;103035;1314;74425;-81
2023/03/10 10:40:25;;;;;;;;;;;;;;;20.80;36.99;99840.67;102852;1308;61295;-82
2023/03/10 10:42:52;;;;;;;;;;;;;;;20.81;36.99;99835.69;102796;1309;61477;-81
2023/03/10 10:45:24;;;;;;;;;;;;;;;20.82;36.90;99831.00;103564;1311;74860;-81
2023/03/10 10:47:50;;;;;;;;;;;;;;;20.80;36.86;99821.73;103054;1308;74626;-81
2023/03/10 10:50:17;;;;;;;;;;;;;;;20.80;36.79;99816.88;102884;1311;61364;-81
2023/03/10 10:52:47;;;;;;;;;;;;;;;20.81;36.73;99819.80;103614;1309;61284;-81
2023/03/10 10:55:30;;;;;;;;;;;;;;;20.84;36.79;99815.46;103719;1309;72689;-81
2023/03/10 10:58:02;;;;;;;;;;;;;;;20.86;36.69;99816.34;104415;1308;74598;-81
2023/03/10 11:00:32;;;;;;;;;;;;;;;20.86;36.58;99812.04;103838;1314;61192;-81
2023/03/10 11:02:57;;;;;;;;;;;;;;;20.85;36.47;99806.64;103623;1308;61486;-81
2023/03/10 11:05:24;;;;;;;;;;;;;;;20.81;36.58;99796.38;103819;1314;59717;-81
2023/03/10 11:07:51;;;;;;;;;;;;;;;20.80;36.49;99783.92;103763;1313;62664;-81
2023/03/10 11:10:17;;;;;;;;;;;;;;;20.80;36.45;99778.45;103678;1312;59561;-81
2023/03/10 11:12:58;;;;;;;;;;;;;;;20.78;36.54;99783.78;103636;1314;61278;-81
2023/03/10 11:15:26;;;;;;;;;;;;;;;20.74;36.51;99782.88;103556;1314;73230;-81
2023/03/10 11:17:53;;;;;;;;;;;;;;;20.71;36.34;99781.82;103867;1311;74674;-82
2023/03/10 11:20:27;;;;;;;;;;;;;;;20.66;36.36;99780.52;103836;1314;60280;-81
2023/03/10 11:23:06;;;;;;;;;;;;;;;20.61;36.45;99779.63;103788;1308;61163;-81
2023/03/10 11:25:42;;;;;;;;;;;;;;;20.56;36.49;99777.52;103582;1314;72835;-81
2023/03/10 11:28:13;;;;;;;;;;;;;;;20.56;36.35;99778.05;103488;1308;74956;-81
2023/03/10 11:30:42;;;;;;;;;;;;;;;20.56;36.21;99770.91;103692;1314;60299;-81
2023/03/10 11:33:12;;;;;;;;;;;;;;;20.54;36.23;99768.58;103655;1308;63481;-81
2023/03/10 11:35:44;;;;;;;;;;;;;;;20.55;36.15;99767.08;104541;1308;72500;-81
2023/03/10 11:38:29;;;;;;;;;;;;;;;20.58;36.21;99765.22;104433;1308;74802;-82
2023/03/10 11:40:59;;;;;;;;;;;;;;;20.60;36.20;99759.30;104137;1309;61337;-82
2023/03/10 11:43:27;;;;;;;;;;;;;;;20.60;36.02;99758.79;103459;1308;61160;-81
2023/03/10 11:45:53;;;;;;;;;;;;;;;20.55;35.93;99754.16;103469;1314;72499;-81
2023/03/10 11:48:20;;;;;;;;;;;;;;;20.51;35.88;99748.10;103797;1308;60563;-80
2023/03/10 11:50:59;;;;;;;;;;;;;;;20.49;35.99;99745.45;103678;1308;61274;-80
2023/03/10 11:53:44;;;;;;;;;;;;;;;20.51;35.85;99737.94;103499;1311;61228;-82
2023/03/10 11:56:11;;;;;;;;;;;;;;;20.52;36.01;99730.13;103606;1308;71659;-82
2023/03/10 11:58:42;;;;;;;;;;;;;;;20.50;35.78;99721.39;103528;1308;74441;-81
2023/03/10 12:01:18;;;;;;;;;;;;;;;20.47;35.76;99719.54;103558;1311;61406;-81
2023/03/10 12:03:54;;;;;;;;;;;;;;;20.45;35.59;99713.09;104493;1308;60177;-81
2023/03/10 12:06:22;;;;;;;;;;;;;;;20.45;35.61;99710.04;104167;1308;73845;-81
2023/03/10 12:08:49;;;;;;;;;;;;;;;20.46;35.47;99707.52;103383;1308;74520;-81
2023/03/10 12:11:15;;;;;;;;;;;;;;;20.46;35.52;99705.34;103572;1308;61167;-81
2023/03/10 12:13:42;;;;;;;;;;;;;;;20.45;35.36;99697.89;103495;1309;61227;-81
2023/03/10 12:16:08;;;;;;;;;;;;;;;20.43;35.30;99694.83;104528;1308;71867;-81
2023/03/10 12:18:34;;;;;;;;;;;;;;;20.45;35.30;99693.05;104381;1308;59182;-81
2023/03/10 12:21:16;;;;;;;;;;;;;;;20.47;35.10;99683.23;103791;1308;61572;-81
2023/03/10 12:23:42;;;;;;;;;;;;;;;20.53;35.25;99677.75;103529;1309;61282;-80
2023/03/10 12:26:08;;;;;;;;;;;;;;;20.58;35.36;99677.10;103478;1313;61210;-80
2023/03/10 12:28:33;;;;;;;;;;;;;;;20.63;35.34;99671.88;103575;1309;61320;-80
2023/03/10 12:31:06;;;;;;;;;;;;;;;20.68;35.39;99668.02;103555;1308;61257;-80
2023/03/10 12:33:51;;;;;;;;;;;;;;;20.72;35.48;99664.61;103468;1308;60010;-81
2023/03/10 12:36:23;;;;;;;;;;;;;;;20.77;35.41;99664.05;102950;1317;72723;-81
2023/03/10 12:38:58;;;;;;;;;;;;;;;20.80;35.46;99659.36;103202;1317;75570;-81